^^
Datos históricos de la estación: Murcia-Puente Tocinos
Diario Informe para Junio 15, 2021 Unidades:  Ambas    Ingés   Métrico
Diario Semanal Mensual Anual
  Máxima: Mínima: Promedio:
Temperatura: 87.1 °F /  30.6 °C 71.4 °F /  21.9 °C 79.3 °F /  26.3 °C
Punto de rocio: 59 °F /  15 °C 50.9 °F /  10.5 °C 55.2 °F /  12.9 °C
Humedad: 55.2% 33.5% 44%
Velocidad viento: 14mph /  22.5km/h - 6.1mph /  9.8km/h
Racha viento: 26.5mph /  42.6km/h - -
Viento- - SE
Presión: 30 in /  1016.1 hPa 29.9 in /  1012.8 hPa -
Precipitación: 0 in /  0.0 mm    
 
 
Tabla de datos para Junio 15, 2021
Hora Temperatura Punto de rocio Presión Viento Velocidad viento Racha viento Humedad Intensidad lluvia(por hora) Nubes
00:04 76.8 °F /  24.9 °C 52.5 °F /  11.4 °C 30in /  1015.9hPa SE 2.9mph /  4.6km/h 5mph /  8km/h 43% 0in /  0.0mm
00:09 76.8 °F /  24.9 °C 52.5 °F /  11.4 °C 30in /  1015.9hPa SE 2.4mph /  3.8km/h 3mph /  4.8km/h 43% 0in /  0.0mm
00:14 76.8 °F /  24.9 °C 53.2 °F /  11.8 °C 30in /  1015.9hPa Este 1.8mph /  2.9km/h 3.1mph /  5km/h 43.9% 0in /  0.0mm
00:19 76.6 °F /  24.8 °C 53.6 °F /  12 °C 30in /  1015.8hPa North 1.8mph /  2.9km/h 3.5mph /  5.6km/h 44.8% 0in /  0.0mm
00:24 76.6 °F /  24.8 °C 53.2 °F /  11.8 °C 30in /  1016.0hPa North 1.8mph /  2.9km/h 3mph /  4.8km/h 44.4% 0in /  0.0mm
00:29 76.5 °F /  24.7 °C 53.1 °F /  11.7 °C 30in /  1016.0hPa North 1.1mph /  1.7km/h 5.2mph /  8.4km/h 44.3% 0in /  0.0mm
00:34 76.5 °F /  24.7 °C 52.9 °F /  11.6 °C 30in /  1016.0hPa Calm   5mph /  8km/h 44% 0in /  0.0mm
00:39 76.3 °F /  24.6 °C 52.9 °F /  11.6 °C 30in /  1016.1hPa ESE 1.2mph /  1.9km/h 5mph /  8km/h 44% 0in /  0.0mm
00:44 76.3 °F /  24.6 °C 52.7 °F /  11.5 °C 30in /  1016.1hPa NE 2.4mph /  3.9km/h 3.5mph /  5.6km/h 43.8% 0in /  0.0mm
00:49 76.3 °F /  24.6 °C 54.1 °F /  12.3 °C 30in /  1016.1hPa North 2.1mph /  3.4km/h 3.6mph /  5.8km/h 46.4% 0in /  0.0mm
00:54 76.1 °F /  24.5 °C 55.4 °F /  13 °C 30in /  1016.1hPa NNO 1.8mph /  2.9km/h 4mph /  6.4km/h 48.6% 0in /  0.0mm
00:59 75.7 °F /  24.3 °C 55.8 °F /  13.2 °C 30in /  1016.0hPa NNO 1.9mph /  3.1km/h 3mph /  4.8km/h 49.9% 0in /  0.0mm
01:04 75.6 °F /  24.2 °C 56.3 °F /  13.5 °C 30in /  1015.7hPa NNO 2mph /  3.2km/h 3.5mph /  5.6km/h 51% 0in /  0.0mm
01:09 75.4 °F /  24.1 °C 54.5 °F /  12.5 °C 30in /  1015.7hPa ENE 1.7mph /  2.8km/h 3.5mph /  5.6km/h 48.4% 0in /  0.0mm
01:14 75 °F /  23.9 °C 53.2 °F /  11.8 °C 30in /  1015.7hPa SE 1.4mph /  2.2km/h 4.7mph /  7.6km/h 46.5% 0in /  0.0mm
01:19 74.7 °F /  23.7 °C 53.1 °F /  11.7 °C 30in /  1015.7hPa ESE 2.1mph /  3.4km/h 5mph /  8km/h 46.7% 0in /  0.0mm
01:24 74.5 °F /  23.6 °C 53.8 °F /  12.1 °C 30in /  1015.7hPa SE 2.9mph /  4.7km/h 5mph /  8km/h 48.5% 0in /  0.0mm
01:29 74.5 °F /  23.6 °C 54.3 °F /  12.4 °C 30in /  1015.7hPa Este 2.4mph /  3.9km/h 5mph /  8km/h 49.5% 0in /  0.0mm
01:34 74.5 °F /  23.6 °C 54.9 °F /  12.7 °C 30in /  1015.6hPa ENE 2mph /  3.2km/h 4mph /  6.4km/h 50.3% 0in /  0.0mm
01:39 74.3 °F /  23.5 °C 55.6 °F /  13.1 °C 30in /  1015.6hPa SE 2mph /  3.2km/h 5mph /  8km/h 51.9% 0in /  0.0mm
01:44 74.1 °F /  23.4 °C 55.6 °F /  13.1 °C 30in /  1015.6hPa ESE 2mph /  3.2km/h 5mph /  8km/h 52.2% 0in /  0.0mm
01:49 73.9 °F /  23.3 °C 55.6 °F /  13.1 °C 30in /  1015.6hPa ESE 2mph /  3.2km/h 4.6mph /  7.4km/h 52.7% 0in /  0.0mm
01:54 73.8 °F /  23.2 °C 55 °F /  12.8 °C 30in /  1015.6hPa NO 2mph /  3.2km/h 3.5mph /  5.6km/h 52% 0in /  0.0mm
01:59 73.8 °F /  23.2 °C 55 °F /  12.8 °C 30in /  1015.5hPa NO 1.7mph /  2.7km/h 3mph /  4.8km/h 52% 0in /  0.0mm
02:04 73.8 °F /  23.2 °C 55 °F /  12.8 °C 30in /  1015.4hPa ONO 1.4mph /  2.2km/h 4.6mph /  7.4km/h 52% 0in /  0.0mm
02:09 73.8 °F /  23.2 °C 54.9 °F /  12.7 °C 30in /  1015.4hPa SSE 1.7mph /  2.7km/h 5mph /  8km/h 51.8% 0in /  0.0mm
02:14 73.8 °F /  23.2 °C 54.5 °F /  12.5 °C 30in /  1015.3hPa SE 2mph /  3.2km/h 5mph /  8km/h 51.1% 0in /  0.0mm
02:19 73.6 °F /  23.1 °C 54.1 °F /  12.3 °C 30in /  1015.2hPa SSE 2.5mph /  4km/h 5.2mph /  8.4km/h 50.7% 0in /  0.0mm
02:20 73.6 °F /  23.1 °C 53.8 °F /  12.1 °C 30in /  1015.2hPa SSE 3.1mph /  5km/h 5mph /  8km/h 50% 0in /  0.0mm
02:29 73.2 °F /  22.9 °C 53.4 °F /  11.9 °C 30in /  1015.3hPa Sur 2.8mph /  4.5km/h 5mph /  8km/h 49.8% 0in /  0.0mm
02:34 73.2 °F /  22.9 °C 53.4 °F /  11.9 °C 30in /  1015.3hPa Sur 2.4mph /  3.9km/h 5mph /  8km/h 50% 0in /  0.0mm
02:39 73.2 °F /  22.9 °C 53.4 °F /  11.9 °C 30in /  1015.3hPa Sur 2.6mph /  4.2km/h 5mph /  8km/h 50% 0in /  0.0mm
02:44 73.2 °F /  22.9 °C 53.6 °F /  12 °C 30in /  1015.3hPa Sur 2.9mph /  4.7km/h 5mph /  8km/h 50% 0in /  0.0mm
02:49 73.4 °F /  23 °C 53.6 °F /  12 °C 30in /  1015.2hPa Sur 2.7mph /  4.3km/h 5mph /  8km/h 50% 0in /  0.0mm
02:54 73.4 °F /  23 °C 53.2 °F /  11.8 °C 30in /  1015.2hPa Sur 2.4mph /  3.9km/h 5mph /  8km/h 49.1% 0in /  0.0mm
02:59 73.6 °F /  23.1 °C 53.8 °F /  12.1 °C 30in /  1015.1hPa Sur 2.4mph /  3.9km/h 5mph /  8km/h 49.8% 0in /  0.0mm
03:04 73.6 °F /  23.1 °C 53.8 °F /  12.1 °C 30in /  1015.0hPa Sur 2.4mph /  3.9km/h 3mph /  4.8km/h 49.8% 0in /  0.0mm
03:09 73.6 °F /  23.1 °C 53.4 °F /  11.9 °C 30in /  1015.0hPa Sur 2.1mph /  3.4km/h 4mph /  6.4km/h 49.4% 0in /  0.0mm
03:14 73.6 °F /  23.1 °C 53.8 °F /  12.1 °C 30in /  1014.9hPa Sur 1.8mph /  2.9km/h 5mph /  8km/h 49.8% 0in /  0.0mm
03:19 73.8 °F /  23.2 °C 53.8 °F /  12.1 °C 30in /  1014.8hPa Sur 1.8mph /  2.9km/h 5mph /  8km/h 49.7% 0in /  0.0mm
03:24 73.8 °F /  23.2 °C 54 °F /  12.2 °C 30in /  1014.8hPa SSE 1.8mph /  2.9km/h 3.5mph /  5.6km/h 50% 0in /  0.0mm
03:29 73.8 °F /  23.2 °C 53.8 °F /  12.1 °C 30in /  1014.7hPa SSE 1.6mph /  2.6km/h 3mph /  4.8km/h 49.6% 0in /  0.0mm
03:34 73.6 °F /  23.1 °C 53.4 °F /  11.9 °C 30in /  1014.6hPa SSE 1.4mph /  2.2km/h 2.4mph /  3.9km/h 49.3% 0in /  0.0mm
03:39 73.4 °F /  23 °C 54.1 °F /  12.3 °C 30in /  1014.6hPa SSE 1.4mph /  2.2km/h 2.9mph /  4.7km/h 50.7% 0in /  0.0mm
03:44 73.2 °F /  22.9 °C 54 °F /  12.2 °C 30in /  1014.6hPa SO 1.4mph /  2.2km/h 3mph /  4.8km/h 51.1% 0in /  0.0mm
03:49 73 °F /  22.8 °C 54.3 °F /  12.4 °C 30in /  1014.6hPa OSO 1.6mph /  2.6km/h 3mph /  4.8km/h 52% 0in /  0.0mm
03:54 72.9 °F /  22.7 °C 54.1 °F /  12.3 °C 30in /  1014.6hPa OSO 1.8mph /  2.9km/h 2.4mph /  3.9km/h 52% 0in /  0.0mm
03:59 72.7 °F /  22.6 °C 54 °F /  12.2 °C 30in /  1014.5hPa OSO 1.6mph /  2.6km/h 2.3mph /  3.7km/h 52% 0in /  0.0mm
04:04 72.7 °F /  22.6 °C 54.5 °F /  12.5 °C 30in /  1014.5hPa OSO 1.4mph /  2.2km/h 2.3mph /  3.7km/h 53% 0in /  0.0mm
04:09 72.7 °F /  22.6 °C 55 °F /  12.8 °C 30in /  1014.6hPa Oeste 1.4mph /  2.3km/h 2.4mph /  3.9km/h 53.9% 0in /  0.0mm
04:14 72.5 °F /  22.5 °C 55 °F /  12.8 °C 30in /  1014.6hPa Oeste 1.4mph /  2.2km/h 2.3mph /  3.7km/h 54.2% 0in /  0.0mm
04:19 72.3 °F /  22.4 °C 55.2 °F /  12.9 °C 30in /  1014.6hPa Oeste 0.7mph /  1.1km/h 2.3mph /  3.7km/h 55% 0in /  0.0mm
04:24 72.3 °F /  22.4 °C 55.2 °F /  12.9 °C 30in /  1014.6hPa Calm   2.9mph /  4.7km/h 55% 0in /  0.0mm
04:29 72.3 °F /  22.4 °C 55.2 °F /  12.9 °C 30in /  1014.6hPa Calm   3mph /  4.8km/h 55% 0in /  0.0mm
04:34 72.3 °F /  22.4 °C 55.2 °F /  12.9 °C 30in /  1014.6hPa Calm   2mph /  3.2km/h 55% 0in /  0.0mm
04:39 72.3 °F /  22.4 °C 54.7 °F /  12.6 °C 30in /  1014.6hPa Calm   2.9mph /  4.7km/h 54.1% 0in /  0.0mm
04:44 72.3 °F /  22.4 °C 54.7 °F /  12.6 °C 30in /  1014.6hPa Calm   4.6mph /  7.4km/h 54% 0in /  0.0mm
04:49 72.1 °F /  22.3 °C 54.9 °F /  12.7 °C 30in /  1014.6hPa Sur 0.8mph /  1.3km/h 5mph /  8km/h 54.3% 0in /  0.0mm
04:54 72.1 °F /  22.3 °C 55 °F /  12.8 °C 30in /  1014.7hPa Sur 2mph /  3.2km/h 4mph /  6.4km/h 55% 0in /  0.0mm
04:59 72 °F /  22.2 °C 55 °F /  12.8 °C 30in /  1014.7hPa SSO 2mph /  3.2km/h 4.7mph /  7.6km/h 55.2% 0in /  0.0mm
05:04 72.1 °F /  22.3 °C 55 °F /  12.8 °C 30in /  1014.7hPa SSO 2mph /  3.2km/h 5mph /  8km/h 55% 0in /  0.0mm
05:09 72.1 °F /  22.3 °C 55 °F /  12.8 °C 30in /  1014.7hPa SSO 2.2mph /  3.5km/h 5mph /  8km/h 55% 0in /  0.0mm
05:14 72.1 °F /  22.3 °C 55 °F /  12.8 °C 30in /  1014.7hPa SSO 2.4mph /  3.9km/h 5mph /  8km/h 55% 0in /  0.0mm
05:19 72.1 °F /  22.3 °C 55 °F /  12.8 °C 30in /  1014.6hPa SSO 2.2mph /  3.6km/h 4.7mph /  7.6km/h 55% 0in /  0.0mm
05:24 72.1 °F /  22.3 °C 55 °F /  12.8 °C 30in /  1014.7hPa SO 2mph /  3.2km/h 5mph /  8km/h 55% 0in /  0.0mm
05:29 72.1 °F /  22.3 °C 55 °F /  12.8 °C 30in /  1014.7hPa SSO 2.4mph /  3.9km/h 5mph /  8km/h 55% 0in /  0.0mm
05:34 72.1 °F /  22.3 °C 55 °F /  12.8 °C 30in /  1014.7hPa SSO 2.9mph /  4.6km/h 5.2mph /  8.4km/h 55% 0in /  0.0mm
05:39 72.1 °F /  22.3 °C 55 °F /  12.8 °C 30in /  1014.7hPa SSO 2.9mph /  4.7km/h 5.2mph /  8.4km/h 55% 0in /  0.0mm
05:44 72 °F /  22.2 °C 54.9 °F /  12.7 °C 30in /  1014.7hPa SSO 2.9mph /  4.7km/h 5.9mph /  9.5km/h 55% 0in /  0.0mm
05:49 72 °F /  22.2 °C 54.9 °F /  12.7 °C 30in /  1014.7hPa SO 3.4mph /  5.4km/h 6.2mph /  10km/h 54.8% 0in /  0.0mm
05:54 71.8 °F /  22.1 °C 54.7 °F /  12.6 °C 30in /  1014.7hPa SO 4mph /  6.5km/h 6mph /  9.7km/h 55% 0in /  0.0mm
05:59 71.8 °F /  22.1 °C 54.3 °F /  12.4 °C 30in /  1014.7hPa SO 4mph /  6.5km/h 6mph /  9.7km/h 54.2% 0in /  0.0mm
06:04 71.8 °F /  22.1 °C 54.1 °F /  12.3 °C 30in /  1014.6hPa SSO 4mph /  6.5km/h 6mph /  9.7km/h 54% 0in /  0.0mm
06:09 71.8 °F /  22.1 °C 54.1 °F /  12.3 °C 30in /  1014.6hPa SSO 3.9mph /  6.2km/h 6.2mph /  10km/h 54% 0in /  0.0mm
06:14 71.8 °F /  22.1 °C 54.1 °F /  12.3 °C 30in /  1014.6hPa SSO 3.6mph /  5.8km/h 7.4mph /  11.9km/h 54% 0in /  0.0mm
06:19 71.8 °F /  22.1 °C 54.1 °F /  12.3 °C 30in /  1014.6hPa SSO 4.1mph /  6.6km/h 8mph /  12.9km/h 54% 0in /  0.0mm
06:24 71.8 °F /  22.1 °C 54.1 °F /  12.3 °C 30in /  1014.6hPa SSO 4.7mph /  7.6km/h 7mph /  11.3km/h 54% 0in /  0.0mm
06:29 71.6 °F /  22 °C 54.1 °F /  12.3 °C 30in /  1014.6hPa SSO 4.5mph /  7.3km/h 6.2mph /  10km/h 54% 0in /  0.0mm
06:34 71.4 °F /  21.9 °C 54 °F /  12.2 °C 30in /  1014.6hPa SSO 4.3mph /  6.9km/h 6.4mph /  10.3km/h 54% 0in /  0.0mm
06:39 71.4 °F /  21.9 °C 54 °F /  12.2 °C 30in /  1014.8hPa SO 4.5mph /  7.2km/h 8.1mph /  13km/h 54% 0in /  0.0mm
06:44 71.4 °F /  21.9 °C 54 °F /  12.2 °C 30in /  1014.8hPa SO 4.7mph /  7.6km/h 8.1mph /  13km/h 54% 0in /  0.0mm
06:49 71.4 °F /  21.9 °C 54 °F /  12.2 °C 30in /  1014.8hPa SO 4.9mph /  7.9km/h 8.1mph /  13km/h 54% 0in /  0.0mm
06:50 71.6 °F /  22 °C 54.1 °F /  12.3 °C 30in /  1014.8hPa SSO 5.2mph /  8.3km/h 7mph /  11.3km/h 54% 0in /  0.0mm
06:59 71.6 °F /  22 °C 53.8 °F /  12.1 °C 30in /  1014.8hPa SSO 4.8mph /  7.7km/h 7.4mph /  11.9km/h 53.4% 0in /  0.0mm
07:04 71.6 °F /  22 °C 53.6 °F /  12 °C 30in /  1014.8hPa SO 4.3mph /  6.9km/h 7.4mph /  11.9km/h 53% 0in /  0.0mm
07:09 71.4 °F /  21.9 °C 53.4 °F /  11.9 °C 30in /  1015.0hPa SO 4.3mph /  6.9km/h 7mph /  11.3km/h 53% 0in /  0.0mm
07:14 71.6 °F /  22 °C 53.6 °F /  12 °C 30in /  1015.0hPa SO 4.3mph /  6.9km/h 6.9mph /  11.1km/h 53% 0in /  0.0mm
07:19 71.6 °F /  22 °C 53.6 °F /  12 °C 30in /  1015.0hPa SO 4.3mph /  6.9km/h 7.4mph /  11.9km/h 53% 0in /  0.0mm
07:24 71.8 °F /  22.1 °C 53.2 °F /  11.8 °C 30in /  1015.3hPa SO 4.3mph /  6.9km/h 8.1mph /  13km/h 52.1% 0in /  0.0mm
07:29 71.8 °F /  22.1 °C 53.2 °F /  11.8 °C 30in /  1015.3hPa SO 4.5mph /  7.2km/h 8.1mph /  13km/h 52% 0in /  0.0mm
07:34 72 °F /  22.2 °C 53.4 °F /  11.9 °C 30in /  1015.3hPa SO 4.7mph /  7.6km/h 9.2mph /  14.8km/h 52% 0in /  0.0mm
07:39 72 °F /  22.2 °C 53.2 °F /  11.8 °C 30in /  1015.3hPa SO 5mph /  8.1km/h 9mph /  14.5km/h 51.6% 0in /  0.0mm
07:44 71.8 °F /  22.1 °C 52.7 °F /  11.5 °C 30in /  1015.3hPa SO 5.4mph /  8.7km/h 10.2mph /  16.4km/h 51% 0in /  0.0mm
07:49 72 °F /  22.2 °C 52.3 °F /  11.3 °C 30in /  1015.2hPa SO 5.7mph /  9.1km/h 10.4mph /  16.7km/h 50.1% 0in /  0.0mm
07:54 72.1 °F /  22.3 °C 52.2 °F /  11.2 °C 30in /  1015.3hPa SO 5.9mph /  9.5km/h 10.4mph /  16.7km/h 49.5% 0in /  0.0mm
07:59 72.3 °F /  22.4 °C 52.2 °F /  11.2 °C 30in /  1015.3hPa SO 6.2mph /  9.9km/h 10.4mph /  16.7km/h 49% 0in /  0.0mm
08:04 72.5 °F /  22.5 °C 52.3 °F /  11.3 °C 30in /  1015.3hPa OSO 6.4mph /  10.3km/h 10.4mph /  16.7km/h 49% 0in /  0.0mm
08:09 72.7 °F /  22.6 °C 52.3 °F /  11.3 °C 30in /  1015.5hPa SO 6mph /  9.6km/h 10mph /  16.1km/h 48.9% 0in /  0.0mm
08:14 72.9 °F /  22.7 °C 52 °F /  11.1 °C 30in /  1015.5hPa SO 5.4mph /  8.7km/h 11.4mph /  18.3km/h 48% 0in /  0.0mm
08:19 72.9 °F /  22.7 °C 52 °F /  11.1 °C 30in /  1015.5hPa SO 5.8mph /  9.3km/h 11mph /  17.7km/h 48% 0in /  0.0mm
08:24 73 °F /  22.8 °C 51.8 °F /  11 °C 30in /  1015.6hPa SO 6.2mph /  10km/h 7.4mph /  11.9km/h 47.5% 0in /  0.0mm
08:29 73.2 °F /  22.9 °C 51.8 °F /  11 °C 30in /  1015.6hPa SO 5.8mph /  9.4km/h 9.2mph /  14.8km/h 47% 0in /  0.0mm
08:34 73.4 °F /  23 °C 52 °F /  11.1 °C 30in /  1015.6hPa SE 5.4mph /  8.7km/h 9mph /  14.5km/h 47% 0in /  0.0mm
08:39 73.6 °F /  23.1 °C 51.4 °F /  10.8 °C 30in /  1015.6hPa SO 4.5mph /  7.3km/h 8.1mph /  13km/h 45.8% 0in /  0.0mm
08:44 73.8 °F /  23.2 °C 51.4 °F /  10.8 °C 30in /  1015.5hPa SSO 3.6mph /  5.8km/h 8mph /  12.9km/h 45.9% 0in /  0.0mm
08:49 74.1 °F /  23.4 °C 51.6 °F /  10.9 °C 30in /  1015.4hPa ENE 3.4mph /  5.4km/h 7.6mph /  12.2km/h 45.5% 0in /  0.0mm
08:54 74.5 °F /  23.6 °C 51.3 °F /  10.7 °C 30in /  1015.4hPa OSO 3.1mph /  5km/h 9.2mph /  14.8km/h 44.1% 0in /  0.0mm
08:59 74.8 °F /  23.8 °C 51.6 °F /  10.9 °C 30in /  1015.4hPa SO 4.2mph /  6.8km/h 9mph /  14.5km/h 44.2% 0in /  0.0mm
09:04 75 °F /  23.9 °C 51.3 °F /  10.7 °C 30in /  1015.4hPa Oeste 5.2mph /  8.4km/h 7mph /  11.3km/h 43.3% 0in /  0.0mm
09:09 75.4 °F /  24.1 °C 51.4 °F /  10.8 °C 30in /  1015.4hPa ONO 4.5mph /  7.3km/h 7mph /  11.3km/h 43.2% 0in /  0.0mm
09:14 75.6 °F /  24.2 °C 52 °F /  11.1 °C 30in /  1015.4hPa ONO 3.6mph /  5.8km/h 6mph /  9.7km/h 43.8% 0in /  0.0mm
09:19 75.6 °F /  24.2 °C 51.4 °F /  10.8 °C 30in /  1015.3hPa Oeste 3.4mph /  5.4km/h 5mph /  8km/h 43% 0in /  0.0mm
09:24 75.7 °F /  24.3 °C 51.3 °F /  10.7 °C 30in /  1015.3hPa Oeste 3.1mph /  5km/h 5.2mph /  8.4km/h 42.4% 0in /  0.0mm
09:29 75.7 °F /  24.3 °C 50.9 °F /  10.5 °C 30in /  1015.3hPa ONO 3.1mph /  5km/h 5.8mph /  9.3km/h 41.7% 0in /  0.0mm
09:34 75.9 °F /  24.4 °C 51.1 °F /  10.6 °C 30in /  1015.2hPa Oeste 3.1mph /  5km/h 9.2mph /  14.8km/h 41.9% 0in /  0.0mm
09:39 76.1 °F /  24.5 °C 51.3 °F /  10.7 °C 30in /  1015.3hPa Sur 3.5mph /  5.6km/h 9.2mph /  14.8km/h 42% 0in /  0.0mm
09:44 76.5 °F /  24.7 °C 51.3 °F /  10.7 °C 30in /  1015.3hPa SSO 4mph /  6.5km/h 9mph /  14.5km/h 41.3% 0in /  0.0mm
09:49 77 °F /  25 °C 51.4 °F /  10.8 °C 30in /  1015.3hPa OSO 3.2mph /  5.2km/h 6mph /  9.7km/h 41% 0in /  0.0mm
09:54 77.5 °F /  25.3 °C 51.4 °F /  10.8 °C 30in /  1015.3hPa SO 2.4mph /  3.9km/h 4.7mph /  7.6km/h 40.4% 0in /  0.0mm
09:59 78.1 °F /  25.6 °C 51.8 °F /  11 °C 30in /  1015.1hPa SO 2.2mph /  3.6km/h 5mph /  8km/h 40% 0in /  0.0mm
10:04 78.3 °F /  25.7 °C 52.3 °F /  11.3 °C 30in /  1014.8hPa SO 2mph /  3.2km/h 9.7mph /  15.6km/h 40.7% 0in /  0.0mm
10:09 77.7 °F /  25.4 °C 52 °F /  11.1 °C 30in /  1015.6hPa SO 3.7mph /  6km/h 10.7mph /  17.2km/h 40.7% 0in /  0.0mm
10:14 77.7 °F /  25.4 °C 52 °F /  11.1 °C 30in /  1015.6hPa SSO 5.9mph /  9.5km/h 12.7mph /  20.4km/h 40.9% 0in /  0.0mm
10:19 77.7 °F /  25.4 °C 52.7 °F /  11.5 °C 30in /  1015.6hPa SO 6.6mph /  10.6km/h 13mph /  20.9km/h 41.9% 0in /  0.0mm
10:24 78.1 °F /  25.6 °C 53.1 °F /  11.7 °C 30in /  1015.7hPa SO 7.6mph /  12.2km/h 13mph /  20.9km/h 42% 0in /  0.0mm
10:29 78.3 °F /  25.7 °C 53.2 °F /  11.8 °C 30in /  1015.7hPa SSO 7mph /  11.3km/h 11.5mph /  18.5km/h 41.9% 0in /  0.0mm
10:34 78.4 °F /  25.8 °C 53.1 °F /  11.7 °C 30in /  1015.7hPa SO 6.4mph /  10.3km/h 12mph /  19.3km/h 41.3% 0in /  0.0mm
10:39 78.6 °F /  25.9 °C 53.2 °F /  11.8 °C 30in /  1015.7hPa OSO 6.3mph /  10.2km/h 12mph /  19.3km/h 41.4% 0in /  0.0mm
10:44 79.2 °F /  26.2 °C 53.2 °F /  11.8 °C 30in /  1015.6hPa Oeste 6.2mph /  10km/h 8mph /  12.9km/h 41% 0in /  0.0mm
10:49 79.2 °F /  26.2 °C 53.4 °F /  11.9 °C 30in /  1015.4hPa OSO 5mph /  8.1km/h 6mph /  9.7km/h 41% 0in /  0.0mm
10:54 79.5 °F /  26.4 °C 53.8 °F /  12.1 °C 30in /  1015.4hPa SSO 3.6mph /  5.8km/h 6mph /  9.7km/h 41% 0in /  0.0mm
10:59 79.9 °F /  26.6 °C 54.1 °F /  12.3 °C 30in /  1015.4hPa Oeste 3.4mph /  5.4km/h 5.9mph /  9.5km/h 41% 0in /  0.0mm
11:04 80.2 °F /  26.8 °C 54.1 °F /  12.3 °C 30in /  1015.4hPa Oeste 3.1mph /  5km/h 6mph /  9.7km/h 40.6% 0in /  0.0mm
11:09 80.8 °F /  27.1 °C 54.1 °F /  12.3 °C 30in /  1015.7hPa SO 3.3mph /  5.3km/h 9.2mph /  14.8km/h 39.9% 0in /  0.0mm
11:14 81.3 °F /  27.4 °C 54 °F /  12.2 °C 30in /  1015.7hPa SSO 3.6mph /  5.8km/h 9.2mph /  14.8km/h 38.9% 0in /  0.0mm
11:19 81.7 °F /  27.6 °C 53.8 °F /  12.1 °C 30in /  1015.7hPa SO 4.3mph /  6.9km/h 9mph /  14.5km/h 38.2% 0in /  0.0mm
11:24 82 °F /  27.8 °C 54 °F /  12.2 °C 30in /  1015.7hPa ESE 5.2mph /  8.4km/h 6mph /  9.7km/h 38% 0in /  0.0mm
11:29 82.6 °F /  28.1 °C 54.3 °F /  12.4 °C 30in /  1015.5hPa NE 4.1mph /  6.6km/h 5.4mph /  8.7km/h 38% 0in /  0.0mm
11:34 83.3 °F /  28.5 °C 53.6 °F /  12 °C 30in /  1015.3hPa NE 2.9mph /  4.7km/h 6mph /  9.7km/h 36.1% 0in /  0.0mm
11:39 83.8 °F /  28.8 °C 53.8 °F /  12.1 °C 30in /  1015.3hPa NE 2.9mph /  4.7km/h 13.5mph /  21.7km/h 35.8% 0in /  0.0mm
11:44 83.8 °F /  28.8 °C 54 °F /  12.2 °C 30in /  1015.3hPa NE 2.9mph /  4.7km/h 14mph /  22.5km/h 35.8% 0in /  0.0mm
11:49 84.2 °F /  29 °C 54.1 °F /  12.3 °C 30in /  1015.2hPa ENE 4.5mph /  7.2km/h 14mph /  22.5km/h 35.7% 0in /  0.0mm
11:54 84 °F /  28.9 °C 54 °F /  12.2 °C 30in /  1015.2hPa NE 6.2mph /  10km/h 12mph /  19.3km/h 35.6% 0in /  0.0mm
11:59 84.2 °F /  29 °C 54.3 °F /  12.4 °C 30in /  1015.1hPa NE 6.8mph /  10.9km/h 14.5mph /  23.3km/h 36% 0in /  0.0mm
12:04 84.6 °F /  29.2 °C 54.7 °F /  12.6 °C 30in /  1014.8hPa NE 7.4mph /  11.9km/h 15mph /  24.1km/h 36% 0in /  0.0mm
12:09 84.7 °F /  29.3 °C 54.7 °F /  12.6 °C 30in /  1014.8hPa NE 6.9mph /  11.1km/h 15mph /  24.1km/h 35.9% 0in /  0.0mm
12:14 85.1 °F /  29.5 °C 54.5 °F /  12.5 °C 30in /  1014.8hPa Este 6.4mph /  10.3km/h 11.8mph /  19km/h 35.2% 0in /  0.0mm
12:19 85.6 °F /  29.8 °C 54.9 °F /  12.7 °C 30in /  1014.8hPa ESE 6.3mph /  10.2km/h 16.3mph /  26.2km/h 35% 0in /  0.0mm
12:24 85.8 °F /  29.9 °C 55 °F /  12.8 °C 30in /  1015.3hPa ENE 6.2mph /  10km/h 16mph /  25.7km/h 35% 0in /  0.0mm
12:29 86.4 °F /  30.2 °C 55.4 °F /  13 °C 30in /  1015.3hPa Este 7.1mph /  11.5km/h 17.3mph /  27.8km/h 34.9% 0in /  0.0mm
12:34 86.9 °F /  30.5 °C 55 °F /  12.8 °C 30in /  1015.3hPa Este 8.5mph /  13.7km/h 20.8mph /  33.5km/h 33.8% 0in /  0.0mm
12:39 87.1 °F /  30.6 °C 54.9 °F /  12.7 °C 30in /  1015.3hPa Este 8.8mph /  14.2km/h 21mph /  33.8km/h 33.5% 0in /  0.0mm
12:44 87.1 °F /  30.6 °C 55 °F /  12.8 °C 30in /  1015.3hPa ENE 9.2mph /  14.8km/h 21mph /  33.8km/h 33.6% 0in /  0.0mm
12:49 87.1 °F /  30.6 °C 55.2 °F /  12.9 °C 30in /  1015.3hPa ENE 9.7mph /  15.6km/h 19mph /  30.6km/h 33.9% 0in /  0.0mm
12:54 87.1 °F /  30.6 °C 55.2 °F /  12.9 °C 30in /  1015.4hPa ENE 10.2mph /  16.4km/h 19.2mph /  30.9km/h 33.9% 0in /  0.0mm
12:59 86.9 °F /  30.5 °C 55 °F /  12.8 °C 30in /  1015.4hPa ENE 9.9mph /  16km/h 20mph /  32.2km/h 33.9% 0in /  0.0mm
13:04 86.4 °F /  30.2 °C 54.7 °F /  12.6 °C 30in /  1015.4hPa ENE 9.7mph /  15.6km/h 20mph /  32.2km/h 34% 0in /  0.0mm
13:09 86.4 °F /  30.2 °C 55 °F /  12.8 °C 30in /  1015.4hPa ENE 10.4mph /  16.8km/h 19mph /  30.6km/h 34.4% 0in /  0.0mm
13:14 86.4 °F /  30.2 °C 55.6 °F /  13.1 °C 30in /  1015.3hPa ENE 11.4mph /  18.4km/h 19.7mph /  31.7km/h 35% 0in /  0.0mm
13:19 86.7 °F /  30.4 °C 55.8 °F /  13.2 °C 30in /  1015.1hPa ENE 11.1mph /  17.8km/h 20mph /  32.2km/h 35% 0in /  0.0mm
13:24 86.5 °F /  30.3 °C 55.8 °F /  13.2 °C 30in /  1015.2hPa Este 10.7mph /  17.2km/h 20.1mph /  32.3km/h 35% 0in /  0.0mm
13:29 86.4 °F /  30.2 °C 55.6 °F /  13.1 °C 30in /  1015.2hPa ENE 10.7mph /  17.2km/h 24.2mph /  38.9km/h 35.1% 0in /  0.0mm
13:34 86.2 °F /  30.1 °C 56.1 °F /  13.4 °C 30in /  1015.2hPa ENE 10.7mph /  17.2km/h 24mph /  38.6km/h 36% 0in /  0.0mm
13:39 85.6 °F /  29.8 °C 56.3 °F /  13.5 °C 30in /  1015.3hPa ENE 11.4mph /  18.4km/h 23mph /  37km/h 36.7% 0in /  0.0mm
13:44 85.8 °F /  29.9 °C 56.5 °F /  13.6 °C 30in /  1015.3hPa ENE 12.3mph /  19.8km/h 20.7mph /  33.3km/h 37% 0in /  0.0mm
13:49 85.8 °F /  29.9 °C 56.5 °F /  13.6 °C 30in /  1015.3hPa ENE 12.1mph /  19.4km/h 21mph /  33.8km/h 37% 0in /  0.0mm
13:54 86 °F /  30 °C 56.7 °F /  13.7 °C 30in /  1015.3hPa Este 11.8mph /  19km/h 20.7mph /  33.3km/h 37% 0in /  0.0mm
13:59 85.8 °F /  29.9 °C 56.5 °F /  13.6 °C 30in /  1015.3hPa ENE 12.1mph /  19.4km/h 21.3mph /  34.3km/h 36.9% 0in /  0.0mm
14:04 85.6 °F /  29.8 °C 56.3 °F /  13.5 °C 30in /  1015.2hPa ENE 12.3mph /  19.8km/h 21mph /  33.8km/h 37% 0in /  0.0mm
14:09 85.5 °F /  29.7 °C 56.5 °F /  13.6 °C 30in /  1015.2hPa ENE 12.3mph /  19.8km/h 20mph /  32.2km/h 37.3% 0in /  0.0mm
14:14 85.3 °F /  29.6 °C 56.1 °F /  13.4 °C 30in /  1015.2hPa ENE 12.3mph /  19.8km/h 23mph /  37km/h 37% 0in /  0.0mm
14:19 84.9 °F /  29.4 °C 56.1 °F /  13.4 °C 30in /  1015.1hPa ENE 12.8mph /  20.6km/h 26.5mph /  42.6km/h 37.4% 0in /  0.0mm
14:24 84.7 °F /  29.3 °C 56.3 °F /  13.5 °C 30in /  1015.1hPa ENE 13.5mph /  21.7km/h 26mph /  41.8km/h 38% 0in /  0.0mm
14:29 85.1 °F /  29.5 °C 56.7 °F /  13.7 °C 30in /  1015.1hPa ENE 13.6mph /  21.9km/h 23.5mph /  37.8km/h 38% 0in /  0.0mm
14:34 85.5 °F /  29.7 °C 56.5 °F /  13.6 °C 30in /  1015.1hPa ENE 13.7mph /  22.1km/h 23mph /  37km/h 37.4% 0in /  0.0mm
14:39 85.3 °F /  29.6 °C 56.3 °F /  13.5 °C 30in /  1015.1hPa ENE 12.3mph /  19.8km/h 22mph /  35.4km/h 37.3% 0in /  0.0mm
14:44 85.1 °F /  29.5 °C 56.5 °F /  13.6 °C 30in /  1015.0hPa ENE 10.7mph /  17.2km/h 23.5mph /  37.8km/h 37.9% 0in /  0.0mm
14:49 84.7 °F /  29.3 °C 56.5 °F /  13.6 °C 30in /  1014.9hPa ENE 11.8mph /  19km/h 23mph /  37km/h 38.3% 0in /  0.0mm
14:54 84.9 °F /  29.4 °C 57.2 °F /  14 °C 30in /  1014.9hPa ENE 13mph /  20.9km/h 20mph /  32.2km/h 39% 0in /  0.0mm
14:59 84.7 °F /  29.3 °C 57 °F /  13.9 °C 30in /  1014.9hPa ENE 11.8mph /  19km/h 21.9mph /  35.2km/h 39.1% 0in /  0.0mm
15:04 84.4 °F /  29.1 °C 57.4 °F /  14.1 °C 30in /  1014.8hPa ENE 10.7mph /  17.2km/h 22.5mph /  36.2km/h 39.9% 0in /  0.0mm
15:09 84.4 °F /  29.1 °C 57.4 °F /  14.1 °C 30in /  1014.8hPa ENE 11.6mph /  18.7km/h 23mph /  37km/h 40% 0in /  0.0mm
15:14 84.4 °F /  29.1 °C 57.2 °F /  14 °C 30in /  1014.7hPa ENE 13mph /  20.9km/h 21mph /  33.8km/h 39.7% 0in /  0.0mm
15:19 84.6 °F /  29.2 °C 56.7 °F /  13.7 °C 30in /  1014.6hPa ENE 12.2mph /  19.6km/h 21.3mph /  34.3km/h 38.8% 0in /  0.0mm
15:24 84.6 °F /  29.2 °C 56.8 °F /  13.8 °C 30in /  1014.6hPa Este 11.2mph /  18km/h 21mph /  33.8km/h 38.9% 0in /  0.0mm
15:29 84.7 °F /  29.3 °C 57.2 °F /  14 °C 30in /  1014.5hPa ENE 10.6mph /  17km/h 16.1mph /  25.9km/h 39% 0in /  0.0mm
15:34 85.1 °F /  29.5 °C 57 °F /  13.9 °C 30in /  1014.5hPa ENE 9.7mph /  15.6km/h 25.3mph /  40.7km/h 38.6% 0in /  0.0mm
15:39 85.3 °F /  29.6 °C 57 °F /  13.9 °C 30in /  1014.5hPa ENE 10.5mph /  16.9km/h 25mph /  40.2km/h 38.3% 0in /  0.0mm
15:44 85.3 °F /  29.6 °C 56.3 °F /  13.5 °C 30in /  1014.4hPa ENE 11.4mph /  18.4km/h 22mph /  35.4km/h 37.2% 0in /  0.0mm
15:49 85.3 °F /  29.6 °C 56.3 °F /  13.5 °C 30in /  1014.3hPa ENE 11.4mph /  18.4km/h 22mph /  35.4km/h 37.2% 0in /  0.0mm
15:54 84.9 °F /  29.4 °C 56.1 °F /  13.4 °C 30in /  1014.3hPa ENE 11.4mph /  18.4km/h 23.5mph /  37.8km/h 37.6% 0in /  0.0mm
15:59 84.9 °F /  29.4 °C 55.8 °F /  13.2 °C 30in /  1014.2hPa ENE 12.4mph /  20km/h 23mph /  37km/h 37% 0in /  0.0mm
16:04 84.9 °F /  29.4 °C 56.5 °F /  13.6 °C 29.9in /  1014.1hPa ENE 13.5mph /  21.7km/h 24.8mph /  39.9km/h 38% 0in /  0.0mm
16:09 85.1 °F /  29.5 °C 56.5 °F /  13.6 °C 29.9in /  1014.1hPa ENE 13mph /  21km/h 25.3mph /  40.7km/h 37.9% 0in /  0.0mm
16:14 84.9 °F /  29.4 °C 56.5 °F /  13.6 °C 29.9in /  1014.1hPa ENE 12.5mph /  20.1km/h 20mph /  32.2km/h 38% 0in /  0.0mm
16:19 85.3 °F /  29.6 °C 56.8 °F /  13.8 °C 29.9in /  1014.1hPa ENE 11.7mph /  18.8km/h 19.6mph /  31.5km/h 38.1% 0in /  0.0mm
16:24 84.9 °F /  29.4 °C 56.7 °F /  13.7 °C 29.9in /  1014.1hPa ENE 10.7mph /  17.2km/h 21.3mph /  34.3km/h 38.2% 0in /  0.0mm
16:29 84.7 °F /  29.3 °C 57 °F /  13.9 °C 29.9in /  1014.0hPa ENE 11.4mph /  18.4km/h 21mph /  33.8km/h 38.7% 0in /  0.0mm
16:34 84.7 °F /  29.3 °C 56.7 °F /  13.7 °C 29.9in /  1014.0hPa ENE 12.3mph /  19.8km/h 18mph /  29km/h 38.6% 0in /  0.0mm
16:39 85.1 °F /  29.5 °C 56.8 °F /  13.8 °C 29.9in /  1014.0hPa ENE 11.6mph /  18.7km/h 18.4mph /  29.6km/h 38.2% 0in /  0.0mm
16:44 85.3 °F /  29.6 °C 57 °F /  13.9 °C 29.9in /  1014.0hPa ENE 10.7mph /  17.2km/h 21.3mph /  34.3km/h 38.2% 0in /  0.0mm
16:49 85.5 °F /  29.7 °C 57 °F /  13.9 °C 29.9in /  1013.9hPa Este 11.4mph /  18.3km/h 21mph /  33.8km/h 38% 0in /  0.0mm
16:54 85.5 °F /  29.7 °C 57 °F /  13.9 °C 29.9in /  1013.9hPa ENE 12.3mph /  19.8km/h 21.9mph /  35.2km/h 38% 0in /  0.0mm
16:59 85.5 °F /  29.7 °C 56.7 °F /  13.7 °C 29.9in /  1013.9hPa NE 11.7mph /  18.9km/h 22mph /  35.4km/h 37.7% 0in /  0.0mm
17:04 85.6 °F /  29.8 °C 56.5 °F /  13.6 °C 29.9in /  1013.7hPa ENE 11.2mph /  18km/h 21.9mph /  35.2km/h 37.1% 0in /  0.0mm
17:09 85.6 °F /  29.8 °C 56.5 °F /  13.6 °C 29.9in /  1013.7hPa ENE 11.3mph /  18.2km/h 22mph /  35.4km/h 37% 0in /  0.0mm
17:14 85.6 °F /  29.8 °C 56.5 °F /  13.6 °C 29.9in /  1013.6hPa ENE 11.4mph /  18.4km/h 21mph /  33.8km/h 37% 0in /  0.0mm
17:19 85.6 °F /  29.8 °C 56.5 °F /  13.6 °C 29.9in /  1013.5hPa ENE 11.6mph /  18.6km/h 21mph /  33.8km/h 37.1% 0in /  0.0mm
17:24 85.6 °F /  29.8 °C 57 °F /  13.9 °C 29.9in /  1013.5hPa ENE 11.8mph /  19km/h 21mph /  33.8km/h 37.7% 0in /  0.0mm
17:29 86 °F /  30 °C 56.7 °F /  13.7 °C 29.9in /  1013.5hPa ENE 11.6mph /  18.7km/h 24.2mph /  38.9km/h 37% 0in /  0.0mm
17:34 86.2 °F /  30.1 °C 56.8 °F /  13.8 °C 29.9in /  1013.5hPa ENE 11.4mph /  18.4km/h 24mph /  38.6km/h 37% 0in /  0.0mm
17:39 86.2 °F /  30.1 °C 56.8 °F /  13.8 °C 29.9in /  1013.5hPa NE 12.4mph /  19.9km/h 23mph /  37km/h 37% 0in /  0.0mm
17:44 85.8 °F /  29.9 °C 57.2 °F /  14 °C 29.9in /  1013.5hPa ENE 13.5mph /  21.7km/h 23mph /  37km/h 37.9% 0in /  0.0mm
17:49 85.8 °F /  29.9 °C 57.4 °F /  14.1 °C 29.9in /  1013.4hPa ENE 12.9mph /  20.8km/h 21.9mph /  35.2km/h 38% 0in /  0.0mm
17:54 86.2 °F /  30.1 °C 57.6 °F /  14.2 °C 29.9in /  1013.4hPa ENE 12.3mph /  19.8km/h 22mph /  35.4km/h 38% 0in /  0.0mm
17:59 86 °F /  30 °C 57.7 °F /  14.3 °C 29.9in /  1013.4hPa ENE 12.1mph /  19.4km/h 22mph /  35.4km/h 38.6% 0in /  0.0mm
18:04 85.8 °F /  29.9 °C 57.4 °F /  14.1 °C 29.9in /  1013.4hPa ENE 11.8mph /  19km/h 22.5mph /  36.2km/h 38.1% 0in /  0.0mm
18:09 85.6 °F /  29.8 °C 57.2 °F /  14 °C 29.9in /  1013.4hPa ENE 12.3mph /  19.8km/h 23mph /  37km/h 38% 0in /  0.0mm
18:14 85.6 °F /  29.8 °C 56.8 °F /  13.8 °C 29.9in /  1013.4hPa ENE 13mph /  20.9km/h 23mph /  37km/h 37.6% 0in /  0.0mm
18:19 85.8 °F /  29.9 °C 56.7 °F /  13.7 °C 29.9in /  1013.4hPa NE 12.4mph /  20km/h 21mph /  33.8km/h 37.2% 0in /  0.0mm
18:24 85.8 °F /  29.9 °C 56.5 °F /  13.6 °C 29.9in /  1013.4hPa ENE 11.8mph /  19km/h 23.5mph /  37.8km/h 37% 0in /  0.0mm
18:29 85.8 °F /  29.9 °C 56.5 °F /  13.6 °C 29.9in /  1013.4hPa ENE 12.7mph /  20.4km/h 23mph /  37km/h 37% 0in /  0.0mm
18:34 85.8 °F /  29.9 °C 56.5 °F /  13.6 °C 29.9in /  1013.3hPa NE 13.7mph /  22.1km/h 23mph /  37km/h 36.9% 0in /  0.0mm
18:39 85.8 °F /  29.9 °C 56.5 °F /  13.6 °C 29.9in /  1013.3hPa ENE 13.1mph /  21.1km/h 20.7mph /  33.3km/h 36.9% 0in /  0.0mm
18:44 85.6 °F /  29.8 °C 56.5 °F /  13.6 °C 29.9in /  1013.3hPa ENE 12.3mph /  19.8km/h 21mph /  33.8km/h 37% 0in /  0.0mm
18:49 85.6 °F /  29.8 °C 56.5 °F /  13.6 °C 29.9in /  1013.3hPa ENE 12.1mph /  19.4km/h 24.6mph /  39.6km/h 37% 0in /  0.0mm
18:54 85.5 °F /  29.7 °C 56.3 °F /  13.5 °C 29.9in /  1013.3hPa ENE 11.8mph /  19km/h 25mph /  40.2km/h 37% 0in /  0.0mm
18:59 85.3 °F /  29.6 °C 56.1 °F /  13.4 °C 29.9in /  1013.1hPa ENE 12.9mph /  20.7km/h 23mph /  37km/h 37% 0in /  0.0mm
19:04 85.1 °F /  29.5 °C 55.8 °F /  13.2 °C 29.9in /  1012.9hPa ENE 14mph /  22.5km/h 25.6mph /  41.2km/h 37% 0in /  0.0mm
19:09 84.9 °F /  29.4 °C 55.8 °F /  13.2 °C 29.9in /  1012.9hPa ENE 13.5mph /  21.8km/h 26mph /  41.8km/h 37% 0in /  0.0mm
19:14 84.7 °F /  29.3 °C 55.6 °F /  13.1 °C 29.9in /  1012.9hPa ENE 13mph /  20.9km/h 21mph /  33.8km/h 37% 0in /  0.0mm
19:19 84.7 °F /  29.3 °C 55.6 °F /  13.1 °C 29.9in /  1012.8hPa ENE 12.2mph /  19.7km/h 18.4mph /  29.6km/h 37% 0in /  0.0mm
19:24 84.6 °F /  29.2 °C 55.2 °F /  12.9 °C 29.9in /  1012.8hPa ENE 11.2mph /  18km/h 18.5mph /  29.8km/h 36.8% 0in /  0.0mm
19:29 84.6 °F /  29.2 °C 55 °F /  12.8 °C 29.9in /  1012.8hPa ENE 11.7mph /  18.8km/h 19.6mph /  31.5km/h 36.6% 0in /  0.0mm
19:34 84.6 °F /  29.2 °C 55.4 °F /  13 °C 29.9in /  1012.8hPa ENE 12.3mph /  19.8km/h 20mph /  32.2km/h 37% 0in /  0.0mm
19:39 84.7 °F /  29.3 °C 55.6 °F /  13.1 °C 29.9in /  1013.0hPa ENE 11.2mph /  18km/h 19.6mph /  31.5km/h 37% 0in /  0.0mm
19:44 84.7 °F /  29.3 °C 55.6 °F /  13.1 °C 29.9in /  1013.0hPa ENE 9.7mph /  15.6km/h 20mph /  32.2km/h 37% 0in /  0.0mm
19:49 84.7 °F /  29.3 °C 55.6 °F /  13.1 °C 29.9in /  1013.0hPa ENE 9.3mph /  14.9km/h 16mph /  25.7km/h 37% 0in /  0.0mm
19:54 84.6 °F /  29.2 °C 55.4 °F /  13 °C 29.9in /  1013.0hPa ENE 8.5mph /  13.7km/h 17mph /  27.4km/h 37% 0in /  0.0mm
19:59 84.4 °F /  29.1 °C 55.9 °F /  13.3 °C 29.9in /  1013.0hPa ENE 8.6mph /  13.8km/h 17.3mph /  27.8km/h 37.9% 0in /  0.0mm
20:04 84.2 °F /  29 °C 55.9 °F /  13.3 °C 29.9in /  1013.0hPa ENE 8.7mph /  14km/h 17mph /  27.4km/h 38.2% 0in /  0.0mm
20:09 84 °F /  28.9 °C 56.5 °F /  13.6 °C 29.9in /  1013.1hPa ENE 7.9mph /  12.7km/h 13mph /  20.9km/h 38.9% 0in /  0.0mm
20:14 84 °F /  28.9 °C 56.3 °F /  13.5 °C 29.9in /  1013.1hPa ENE 6.4mph /  10.3km/h 15mph /  24.1km/h 39% 0in /  0.0mm
20:19 83.8 °F /  28.8 °C 56.1 °F /  13.4 °C 29.9in /  1013.1hPa ENE 6.2mph /  10km/h 15mph /  24.1km/h 39% 0in /  0.0mm
20:24 83.8 °F /  28.8 °C 56.8 °F /  13.8 °C 29.9in /  1013.2hPa Este 5.9mph /  9.5km/h 10.4mph /  16.7km/h 39.9% 0in /  0.0mm
20:29 83.7 °F /  28.7 °C 56.8 °F /  13.8 °C 29.9in /  1013.2hPa Este 5.7mph /  9.1km/h 10mph /  16.1km/h 40% 0in /  0.0mm
20:34 83.5 °F /  28.6 °C 56.7 °F /  13.7 °C 29.9in /  1013.2hPa ENE 5.4mph /  8.7km/h 10.4mph /  16.7km/h 40% 0in /  0.0mm
20:39 83.3 °F /  28.5 °C 56.5 °F /  13.6 °C 29.9in /  1013.2hPa North 5.6mph /  9km/h 10.4mph /  16.7km/h 40% 0in /  0.0mm
20:44 82.9 °F /  28.3 °C 56.7 °F /  13.7 °C 29.9in /  1013.2hPa North 5.9mph /  9.5km/h 10.4mph /  16.7km/h 40.6% 0in /  0.0mm
20:49 82.9 °F /  28.3 °C 57 °F /  13.9 °C 29.9in /  1013.2hPa Este 5.9mph /  9.5km/h 10mph /  16.1km/h 41.3% 0.04in /  1.0mm
20:54 82.9 °F /  28.3 °C 58.3 °F /  14.6 °C 29.9in /  1013.2hPa Este 5.9mph /  9.5km/h 8mph /  12.9km/h 43.3% 0.11in /  2.8mm
20:59 82 °F /  27.8 °C 58.1 °F /  14.5 °C 29.9in /  1013.2hPa Este 5.2mph /  8.3km/h 7mph /  11.3km/h 44.1% 0.11in /  2.8mm
21:04 81.3 °F /  27.4 °C 57.9 °F /  14.4 °C 29.9in /  1013.1hPa Este 4.3mph /  6.9km/h 10.4mph /  16.7km/h 45% 0.11in /  2.8mm
21:09 81.1 °F /  27.3 °C 57.7 °F /  14.3 °C 29.9in /  1013.1hPa Este 4.5mph /  7.2km/h 10mph /  16.1km/h 45% 0.11in /  2.8mm
21:14 81.1 °F /  27.3 °C 57.7 °F /  14.3 °C 29.9in /  1013.0hPa Este 4.7mph /  7.6km/h 9.2mph /  14.8km/h 45% 0.11in /  2.8mm
21:19 81.1 °F /  27.3 °C 57.7 °F /  14.3 °C 29.9in /  1012.9hPa Este 4.7mph /  7.6km/h 9mph /  14.5km/h 45% 0.11in /  2.8mm
21:24 81.1 °F /  27.3 °C 58.3 °F /  14.6 °C 29.9in /  1013.1hPa Este 4.7mph /  7.6km/h 8.1mph /  13km/h 45.7% 0.11in /  2.8mm
21:29 81.1 °F /  27.3 °C 58.3 °F /  14.6 °C 29.9in /  1013.1hPa Este 4.4mph /  7.1km/h 8.1mph /  13km/h 46% 0.11in /  2.8mm
21:34 81 °F /  27.2 °C 58.3 °F /  14.6 °C 29.9in /  1013.1hPa Este 4mph /  6.5km/h 8mph /  12.9km/h 46% 0.11in /  2.8mm
21:39 81 °F /  27.2 °C 58.1 °F /  14.5 °C 29.9in /  1013.3hPa ESE 3.6mph /  5.8km/h 7mph /  11.3km/h 46% 0.11in /  2.8mm
21:44 80.8 °F /  27.1 °C 58.3 °F /  14.6 °C 29.9in /  1013.3hPa SSE 3.1mph /  5km/h 6mph /  9.7km/h 46.4% 0in /  0.0mm
21:49 80.8 °F /  27.1 °C 58.5 °F /  14.7 °C 29.9in /  1013.3hPa SE 3.1mph /  5km/h 6mph /  9.7km/h 46.7% 0.11in /  2.8mm
21:54 80.6 °F /  27 °C 58.5 °F /  14.7 °C 29.9in /  1013.5hPa ESE 3.1mph /  5km/h 5.2mph /  8.4km/h 47% 0.07in /  1.8mm
21:59 80.4 °F /  26.9 °C 58.3 °F /  14.6 °C 29.9in /  1013.5hPa Este 3mph /  4.8km/h 5.2mph /  8.4km/h 47% 0in /  0.0mm
22:04 80.2 °F /  26.8 °C 58.3 °F /  14.6 °C 29.9in /  1013.5hPa Este 2.9mph /  4.6km/h 5.9mph /  9.5km/h 47% 0in /  0.0mm
22:09 80.1 °F /  26.7 °C 58.3 °F /  14.6 °C 29.9in /  1013.5hPa Este 3mph /  4.8km/h 6.2mph /  10km/h 47.6% 0in /  0.0mm
22:14 79.9 °F /  26.6 °C 58.5 °F /  14.7 °C 29.9in /  1013.5hPa Este 3.1mph /  5km/h 8.1mph /  13km/h 48% 0in /  0.0mm
22:19 79.7 °F /  26.5 °C 58.3 °F /  14.6 °C 29.9in /  1013.5hPa Este 3.7mph /  5.9km/h 8mph /  12.9km/h 48% 0in /  0.0mm
22:24 79.5 °F /  26.4 °C 58.1 °F /  14.5 °C 29.9in /  1013.6hPa Este 4.3mph /  6.9km/h 7mph /  11.3km/h 48% 0in /  0.0mm
22:29 79.5 °F /  26.4 °C 58.3 °F /  14.6 °C 29.9in /  1013.6hPa ENE 3.7mph /  6km/h 5mph /  8km/h 48.3% 0in /  0.0mm
22:34 79.3 °F /  26.3 °C 58.5 °F /  14.7 °C 29.9in /  1013.6hPa ENE 2.9mph /  4.7km/h 5mph /  8km/h 49% 0in /  0.0mm
22:39 79.3 °F /  26.3 °C 58.5 °F /  14.7 °C 29.9in /  1013.8hPa Este 2.7mph /  4.3km/h 5mph /  8km/h 48.8% 0in /  0.0mm
22:44 79.3 °F /  26.3 °C 58.5 °F /  14.7 °C 29.9in /  1013.8hPa Este 2.4mph /  3.9km/h 4.6mph /  7.4km/h 49% 0in /  0.0mm
22:49 79.3 °F /  26.3 °C 58.5 °F /  14.7 °C 29.9in /  1013.8hPa Este 2.2mph /  3.5km/h 5mph /  8km/h 49% 0in /  0.0mm
22:54 79.2 °F /  26.2 °C 58.5 °F /  14.7 °C 29.9in /  1013.8hPa Este 2mph /  3.2km/h 5.4mph /  8.7km/h 49% 0in /  0.0mm
22:59 79 °F /  26.1 °C 58.3 °F /  14.6 °C 29.9in /  1013.7hPa Este 2.8mph /  4.5km/h 6mph /  9.7km/h 49% 0in /  0.0mm
23:04 79 °F /  26.1 °C 58.5 °F /  14.7 °C 29.9in /  1013.5hPa Este 3.6mph /  5.8km/h 6mph /  9.7km/h 49.4% 0in /  0.0mm
23:09 78.8 °F /  26 °C 58.6 °F /  14.8 °C 29.9in /  1013.7hPa Este 3.6mph /  5.8km/h 5mph /  8km/h 50% 0in /  0.0mm
23:14 78.6 °F /  25.9 °C 58.5 °F /  14.7 °C 29.9in /  1013.7hPa Este 3.6mph /  5.8km/h 5.2mph /  8.4km/h 50% 0in /  0.0mm
23:19 78.6 °F /  25.9 °C 58.5 °F /  14.7 °C 29.9in /  1013.7hPa Este 3.6mph /  5.8km/h 5.9mph /  9.5km/h 50% 0in /  0.0mm
23:24 78.4 °F /  25.8 °C 58.3 °F /  14.6 °C 29.9in /  1013.7hPa Este 3.6mph /  5.8km/h 6mph /  9.7km/h 50.1% 0in /  0.0mm
23:29 78.4 °F /  25.8 °C 58.6 °F /  14.8 °C 29.9in /  1013.6hPa Este 3.4mph /  5.4km/h 5mph /  8km/h 51% 0in /  0.0mm
23:34 78.3 °F /  25.7 °C 58.6 °F /  14.8 °C 29.9in /  1013.6hPa Este 3.1mph /  5km/h 5.9mph /  9.5km/h 51% 0in /  0.0mm
23:39 78.1 °F /  25.6 °C 58.5 °F /  14.7 °C 29.9in /  1013.6hPa Este 3.3mph /  5.3km/h 6.2mph /  10km/h 51% 0in /  0.0mm
23:44 78.1 °F /  25.6 °C 58.5 °F /  14.7 °C 29.9in /  1013.4hPa Este 3.6mph /  5.8km/h 6.2mph /  10km/h 51% 0in /  0.0mm
23:49 78.1 °F /  25.6 °C 58.8 °F /  14.9 °C 29.9in /  1013.4hPa Este 3.8mph /  6.1km/h 7.4mph /  11.9km/h 51.8% 0in /  0.0mm
23:54 77.9 °F /  25.5 °C 59 °F /  15 °C 29.9in /  1013.4hPa Este 4mph /  6.4km/h 5.9mph /  9.5km/h 52% 0in /  0.0mm
23:59 78.1 °F /  25.6 °C 59 °F /  15 °C 29.9in /  1013.3hPa ESE 3.5mph /  5.7km/h 6mph /  9.7km/h 52% 0in /  0.0mm
Murcia-Puente Tocinos, España
Compliments of Weather Underground - 3 mb

La estación de MeteoMurcia.com, publica sus datos en los siguientes proyectos:

Weather Underground PWS IMURCIAP2 Meteoclimatic www.awekas.at

W3Counter
Web Analytics